createdAt,value
2022-08-05T00:01:00.935Z,5.00
2022-08-05T00:03:46.683Z,5.15
2022-08-05T00:06:27.755Z,5.30
2022-08-05T00:08:59.131Z,5.28
2022-08-05T00:11:34.695Z,5.45
2022-08-05T00:14:02.375Z,5.70
2022-08-05T00:16:52.804Z,5.03
2022-08-05T00:19:22.147Z,5.53
2022-08-05T00:21:50.422Z,5.82
2022-08-05T00:24:24.260Z,5.38
2022-08-05T00:26:52.855Z,5.50
2022-08-05T00:29:22.779Z,5.90
2022-08-05T00:32:09.332Z,5.53
2022-08-05T00:34:55.635Z,6.03
2022-08-05T00:37:27.393Z,5.80
2022-08-05T00:40:13.630Z,5.70
2022-08-05T00:42:48.261Z,6.10
2022-08-05T00:45:16.622Z,5.27
2022-08-05T00:47:57.808Z,5.70
2022-08-05T00:50:32.415Z,5.60
2022-08-05T00:53:00.402Z,5.97
2022-08-05T00:55:42.081Z,5.82
2022-08-05T00:58:11.352Z,6.40
2022-08-05T01:00:39.128Z,6.38
2022-08-05T01:03:07.669Z,6.10
2022-08-05T01:05:35.202Z,5.63
2022-08-05T01:08:40.996Z,6.47
2022-08-05T01:10:54.733Z,6.32
2022-08-05T01:13:59.081Z,5.93
2022-08-05T01:16:26.202Z,6.60
2022-08-05T01:19:14.343Z,6.40
2022-08-05T01:22:23.847Z,5.68
2022-08-05T01:25:14.687Z,6.57
2022-08-05T01:28:13.934Z,6.05
2022-08-05T01:30:50.596Z,6.10
2022-08-05T01:33:25.176Z,6.20
2022-08-05T01:35:55.550Z,6.20
2022-08-05T01:38:29.225Z,5.68
2022-08-05T01:40:59.663Z,5.68
2022-08-05T01:43:28.136Z,5.47
2022-08-05T01:45:56.797Z,5.18
2022-08-05T01:48:25.903Z,5.57
2022-08-05T01:50:55.381Z,5.70
2022-08-05T01:53:57.148Z,6.20
2022-08-05T01:56:13.747Z,5.75
2022-08-05T01:59:04.619Z,7.15
2022-08-05T02:01:39.882Z,7.07
2022-08-05T02:04:09.102Z,7.28
2022-08-05T02:06:38.776Z,7.53
2022-08-05T02:09:06.406Z,9.17
2022-08-05T02:11:42.499Z,8.93
2022-08-05T02:14:26.290Z,9.43
2022-08-05T02:16:59.246Z,8.55
2022-08-05T21:56:01.294Z,4.87
2022-08-05T21:58:16.408Z,4.70
2022-08-05T22:00:51.383Z,4.85
2022-08-05T22:03:18.310Z,4.95
2022-08-05T22:06:05.191Z,5.03
2022-08-05T22:08:32.438Z,4.93
2022-08-05T22:11:00.508Z,4.23
2022-08-05T22:14:05.803Z,4.50
2022-08-05T22:16:39.506Z,4.68
2022-08-05T22:19:01.011Z,5.00
2022-08-05T22:21:27.789Z,5.05
2022-08-05T22:24:01.969Z,5.28
2022-08-05T22:26:36.850Z,4.40
2022-08-05T22:29:03.596Z,5.03
2022-08-05T22:31:30.631Z,4.97
2022-08-05T22:34:01.611Z,5.25
2022-08-05T22:36:29.181Z,4.95
2022-08-05T22:38:55.966Z,4.40
2022-08-05T22:41:26.475Z,4.53
2022-08-05T22:44:12.295Z,4.70
2022-08-05T22:46:39.626Z,5.07
2022-08-05T22:49:07.848Z,4.85
2022-08-05T22:52:06.328Z,4.65
2022-08-05T22:54:26.303Z,4.22
2022-08-05T22:56:54.395Z,4.20
2022-08-05T22:59:44.273Z,4.47
2022-08-05T23:02:09.989Z,4.82
2022-08-05T23:04:37.076Z,4.72
2022-08-05T23:07:04.845Z,4.60
2022-08-05T23:09:58.399Z,4.38
2022-08-05T23:12:20.294Z,4.60
2022-08-05T23:14:52.038Z,4.00
2022-08-05T23:17:23.935Z,4.00
2022-08-05T23:19:56.133Z,3.95
2022-08-05T23:22:27.097Z,3.85
2022-08-05T23:24:54.778Z,3.58
2022-08-05T23:27:21.411Z,3.83
2022-08-05T23:29:50.604Z,3.80
2022-08-05T23:32:22.889Z,3.53
2022-08-05T23:34:50.836Z,4.28
2022-08-05T23:37:17.792Z,4.32
2022-08-05T23:39:54.629Z,4.22
2022-08-05T23:42:23.483Z,3.97
2022-08-05T23:44:56.660Z,3.97
2022-08-05T23:47:25.409Z,3.90
2022-08-05T23:49:56.326Z,3.03
2022-08-05T23:52:25.253Z,3.40
2022-08-05T23:54:52.858Z,3.30
2022-08-05T23:57:19.464Z,3.25
